sensor_id;sensor_type;location;lat;lon;timestamp;P1;durP1;ratioP1;P2;durP2;ratioP2
45522;SDS011;31254;51.680;5.394;2023-08-30T00:01:01;4.95;;;2.88;;
45522;SDS011;31254;51.680;5.394;2023-08-30T00:03:28;6.32;;;3.03;;
45522;SDS011;31254;51.680;5.394;2023-08-30T00:05:54;5.38;;;3.13;;
45522;SDS011;31254;51.680;5.394;2023-08-30T00:08:21;4.75;;;3.40;;
45522;SDS011;31254;51.680;5.394;2023-08-30T00:10:48;4.75;;;2.80;;
45522;SDS011;31254;51.680;5.394;2023-08-30T00:13:15;4.05;;;2.80;;
45522;SDS011;31254;51.680;5.394;2023-08-30T00:15:42;4.20;;;3.05;;
45522;SDS011;31254;51.680;5.394;2023-08-30T00:18:09;6.25;;;3.20;;
45522;SDS011;31254;51.680;5.394;2023-08-30T00:20:36;5.22;;;3.30;;
45522;SDS011;31254;51.680;5.394;2023-08-30T00:23:03;4.60;;;3.10;;
45522;SDS011;31254;51.680;5.394;2023-08-30T00:25:30;4.50;;;3.00;;
45522;SDS011;31254;51.680;5.394;2023-08-30T00:27:57;4.10;;;2.85;;
45522;SDS011;31254;51.680;5.394;2023-08-30T00:30:23;5.55;;;3.30;;
45522;SDS011;31254;51.680;5.394;2023-08-30T00:32:50;4.68;;;3.03;;
45522;SDS011;31254;51.680;5.394;2023-08-30T00:35:16;4.75;;;2.90;;
45522;SDS011;31254;51.680;5.394;2023-08-30T00:37:43;3.78;;;2.75;;
45522;SDS011;31254;51.680;5.394;2023-08-30T00:40:10;4.78;;;3.30;;
45522;SDS011;31254;51.680;5.394;2023-08-30T00:42:36;6.78;;;3.10;;
45522;SDS011;31254;51.680;5.394;2023-08-30T00:45:03;7.10;;;3.58;;
45522;SDS011;31254;51.680;5.394;2023-08-30T00:47:30;4.90;;;3.30;;
45522;SDS011;31254;51.680;5.394;2023-08-30T00:49:57;5.35;;;3.38;;
45522;SDS011;31254;51.680;5.394;2023-08-30T00:52:24;5.00;;;3.40;;
45522;SDS011;31254;51.680;5.394;2023-08-30T00:54:51;5.55;;;3.38;;
45522;SDS011;31254;51.680;5.394;2023-08-30T00:57:17;5.05;;;3.10;;
45522;SDS011;31254;51.680;5.394;2023-08-30T00:59:44;5.47;;;3.80;;
45522;SDS011;31254;51.680;5.394;2023-08-30T01:02:11;6.70;;;3.40;;
45522;SDS011;31254;51.680;5.394;2023-08-30T01:04:38;5.13;;;3.53;;
45522;SDS011;31254;51.680;5.394;2023-08-30T01:07:05;5.70;;;3.97;;
45522;SDS011;31254;51.680;5.394;2023-08-30T01:09:31;4.75;;;3.13;;
45522;SDS011;31254;51.680;5.394;2023-08-30T01:12:09;4.70;;;3.20;;
45522;SDS011;31254;51.680;5.394;2023-08-30T01:14:56;5.85;;;3.30;;
45522;SDS011;31254;51.680;5.394;2023-08-30T01:17:27;5.45;;;3.45;;
45522;SDS011;31254;51.680;5.394;2023-08-30T01:19:58;5.13;;;3.45;;
45522;SDS011;31254;51.680;5.394;2023-08-30T01:27:43;5.30;;;3.53;;
45522;SDS011;31254;51.680;5.394;2023-08-30T01:30:13;7.93;;;4.07;;
45522;SDS011;31254;51.680;5.394;2023-08-30T01:32:42;4.90;;;3.47;;
45522;SDS011;31254;51.680;5.394;2023-08-30T01:35:10;5.47;;;3.78;;
45522;SDS011;31254;51.680;5.394;2023-08-30T01:37:37;5.90;;;3.40;;
45522;SDS011;31254;51.680;5.394;2023-08-30T01:40:04;5.00;;;3.47;;
45522;SDS011;31254;51.680;5.394;2023-08-30T01:42:33;7.00;;;4.00;;
45522;SDS011;31254;51.680;5.394;2023-08-30T01:45:01;8.60;;;3.70;;
45522;SDS011;31254;51.680;5.394;2023-08-30T01:47:29;5.50;;;3.85;;
45522;SDS011;31254;51.680;5.394;2023-08-30T01:49:57;5.90;;;4.00;;
45522;SDS011;31254;51.680;5.394;2023-08-30T01:52:24;5.45;;;3.53;;
45522;SDS011;31254;51.680;5.394;2023-08-30T01:54:52;6.40;;;3.67;;
45522;SDS011;31254;51.680;5.394;2023-08-30T01:57:19;5.50;;;3.50;;
45522;SDS011;31254;51.680;5.394;2023-08-30T01:59:46;6.32;;;3.85;;
45522;SDS011;31254;51.680;5.394;2023-08-30T02:02:13;5.70;;;3.80;;
45522;SDS011;31254;51.680;5.394;2023-08-30T02:04:39;5.78;;;3.75;;
45522;SDS011;31254;51.680;5.394;2023-08-30T02:07:54;5.35;;;3.70;;
45522;SDS011;31254;51.680;5.394;2023-08-30T02:10:02;5.55;;;3.67;;
45522;SDS011;31254;51.680;5.394;2023-08-30T02:12:49;7.13;;;4.55;;
45522;SDS011;31254;51.680;5.394;2023-08-30T02:15:18;5.43;;;3.80;;
45522;SDS011;31254;51.680;5.394;2023-08-30T02:17:46;6.43;;;3.85;;
45522;SDS011;31254;51.680;5.394;2023-08-30T02:20:14;5.35;;;3.67;;
45522;SDS011;31254;51.680;5.394;2023-08-30T02:22:42;7.03;;;3.80;;
45522;SDS011;31254;51.680;5.394;2023-08-30T02:25:08;6.20;;;3.90;;
45522;SDS011;31254;51.680;5.394;2023-08-30T02:27:36;6.88;;;3.97;;
45522;SDS011;31254;51.680;5.394;2023-08-30T02:30:03;5.65;;;3.85;;
45522;SDS011;31254;51.680;5.394;2023-08-30T02:32:29;6.20;;;4.22;;
45522;SDS011;31254;51.680;5.394;2023-08-30T02:34:56;7.32;;;3.92;;
45522;SDS011;31254;51.680;5.394;2023-08-30T02:37:23;7.07;;;3.60;;
45522;SDS011;31254;51.680;5.394;2023-08-30T02:39:50;6.57;;;4.20;;
45522;SDS011;31254;51.680;5.394;2023-08-30T02:42:17;6.57;;;4.10;;
45522;SDS011;31254;51.680;5.394;2023-08-30T02:44:43;6.65;;;4.05;;
45522;SDS011;31254;51.680;5.394;2023-08-30T02:47:10;5.40;;;3.88;;
45522;SDS011;31254;51.680;5.394;2023-08-30T02:49:36;5.03;;;3.60;;
45522;SDS011;31254;51.680;5.394;2023-08-30T02:52:03;7.10;;;3.83;;
45522;SDS011;31254;51.680;5.394;2023-08-30T02:54:30;6.97;;;4.30;;
45522;SDS011;31254;51.680;5.394;2023-08-30T02:56:56;6.03;;;3.67;;
45522;SDS011;31254;51.680;5.394;2023-08-30T02:59:23;6.45;;;4.00;;
45522;SDS011;31254;51.680;5.394;2023-08-30T03:01:49;6.70;;;3.90;;
45522;SDS011;31254;51.680;5.394;2023-08-30T03:04:16;7.72;;;4.90;;
45522;SDS011;31254;51.680;5.394;2023-08-30T03:06:42;9.82;;;4.13;;
45522;SDS011;31254;51.680;5.394;2023-08-30T03:09:09;7.55;;;4.30;;
45522;SDS011;31254;51.680;5.394;2023-08-30T03:11:36;6.07;;;3.90;;
45522;SDS011;31254;51.680;5.394;2023-08-30T03:14:03;8.23;;;4.32;;
45522;SDS011;31254;51.680;5.394;2023-08-30T03:16:29;6.30;;;3.75;;
45522;SDS011;31254;51.680;5.394;2023-08-30T03:18:57;6.35;;;3.65;;
45522;SDS011;31254;51.680;5.394;2023-08-30T03:21:24;6.38;;;3.95;;
45522;SDS011;31254;51.680;5.394;2023-08-30T03:23:51;5.50;;;3.90;;
45522;SDS011;31254;51.680;5.394;2023-08-30T03:26:17;7.03;;;4.18;;
45522;SDS011;31254;51.680;5.394;2023-08-30T03:28:44;6.22;;;4.22;;
45522;SDS011;31254;51.680;5.394;2023-08-30T03:31:15;6.38;;;4.32;;
45522;SDS011;31254;51.680;5.394;2023-08-30T03:33:43;6.18;;;4.22;;
45522;SDS011;31254;51.680;5.394;2023-08-30T03:36:11;7.32;;;4.15;;
45522;SDS011;31254;51.680;5.394;2023-08-30T03:38:39;5.38;;;3.88;;
45522;SDS011;31254;51.680;5.394;2023-08-30T03:41:06;6.68;;;4.38;;
45522;SDS011;31254;51.680;5.394;2023-08-30T03:43:33;8.90;;;4.28;;
45522;SDS011;31254;51.680;5.394;2023-08-30T03:46:00;8.07;;;4.20;;
45522;SDS011;31254;51.680;5.394;2023-08-30T03:48:27;6.65;;;3.92;;
45522;SDS011;31254;51.680;5.394;2023-08-30T03:50:54;5.68;;;3.95;;
45522;SDS011;31254;51.680;5.394;2023-08-30T03:53:21;5.72;;;4.32;;
45522;SDS011;31254;51.680;5.394;2023-08-30T03:55:48;7.40;;;3.90;;
45522;SDS011;31254;51.680;5.394;2023-08-30T03:58:15;6.07;;;4.55;;
45522;SDS011;31254;51.680;5.394;2023-08-30T04:00:41;6.18;;;4.20;;
45522;SDS011;31254;51.680;5.394;2023-08-30T04:03:09;6.47;;;4.18;;
45522;SDS011;31254;51.680;5.394;2023-08-30T04:05:36;7.72;;;4.78;;
45522;SDS011;31254;51.680;5.394;2023-08-30T04:08:06;6.38;;;4.38;;
45522;SDS011;31254;51.680;5.394;2023-08-30T04:10:36;5.70;;;4.40;;
45522;SDS011;31254;51.680;5.394;2023-08-30T04:13:03;6.97;;;4.55;;
45522;SDS011;31254;51.680;5.394;2023-08-30T04:15:37;6.97;;;4.60;;
45522;SDS011;31254;51.680;5.394;2023-08-30T04:18:05;7.07;;;4.10;;
45522;SDS011;31254;51.680;5.394;2023-08-30T04:20:33;7.63;;;4.70;;
45522;SDS011;31254;51.680;5.394;2023-08-30T04:23:01;7.05;;;4.22;;
45522;SDS011;31254;51.680;5.394;2023-08-30T04:25:28;9.85;;;4.50;;
45522;SDS011;31254;51.680;5.394;2023-08-30T04:27:56;6.43;;;4.32;;
45522;SDS011;31254;51.680;5.394;2023-08-30T04:30:23;7.07;;;4.30;;
45522;SDS011;31254;51.680;5.394;2023-08-30T04:32:49;7.13;;;3.95;;
45522;SDS011;31254;51.680;5.394;2023-08-30T04:35:16;6.20;;;4.28;;
45522;SDS011;31254;51.680;5.394;2023-08-30T04:37:43;6.88;;;4.70;;
45522;SDS011;31254;51.680;5.394;2023-08-30T04:40:10;7.43;;;4.70;;
45522;SDS011;31254;51.680;5.394;2023-08-30T04:42:37;9.85;;;4.85;;
45522;SDS011;31254;51.680;5.394;2023-08-30T04:45:06;6.43;;;4.68;;
45522;SDS011;31254;51.680;5.394;2023-08-30T04:47:34;6.70;;;4.70;;
45522;SDS011;31254;51.680;5.394;2023-08-30T04:50:00;7.18;;;4.90;;
45522;SDS011;31254;51.680;5.394;2023-08-30T04:52:27;7.47;;;4.82;;
45522;SDS011;31254;51.680;5.394;2023-08-30T04:54:54;7.38;;;4.78;;
45522;SDS011;31254;51.680;5.394;2023-08-30T04:57:20;7.93;;;5.05;;
45522;SDS011;31254;51.680;5.394;2023-08-30T04:59:47;7.82;;;4.65;;
45522;SDS011;31254;51.680;5.394;2023-08-30T05:02:14;8.30;;;5.32;;
45522;SDS011;31254;51.680;5.394;2023-08-30T05:04:40;6.95;;;4.70;;
45522;SDS011;31254;51.680;5.394;2023-08-30T05:07:07;6.88;;;4.93;;
45522;SDS011;31254;51.680;5.394;2023-08-30T05:09:34;10.20;;;5.22;;
45522;SDS011;31254;51.680;5.394;2023-08-30T05:12:01;7.95;;;4.53;;
45522;SDS011;31254;51.680;5.394;2023-08-30T05:14:28;7.68;;;5.00;;
45522;SDS011;31254;51.680;5.394;2023-08-30T05:16:54;7.50;;;4.60;;
45522;SDS011;31254;51.680;5.394;2023-08-30T05:19:21;8.35;;;4.90;;
45522;SDS011;31254;51.680;5.394;2023-08-30T05:21:48;7.47;;;4.90;;
45522;SDS011;31254;51.680;5.394;2023-08-30T05:24:17;5.50;;;4.50;;
45522;SDS011;31254;51.680;5.394;2023-08-30T05:26:44;6.80;;;4.88;;
45522;SDS011;31254;51.680;5.394;2023-08-30T05:29:13;8.48;;;4.97;;
45522;SDS011;31254;51.680;5.394;2023-08-30T05:31:41;7.50;;;4.80;;
45522;SDS011;31254;51.680;5.394;2023-08-30T05:34:08;7.90;;;4.88;;
45522;SDS011;31254;51.680;5.394;2023-08-30T05:36:34;6.75;;;4.65;;
45522;SDS011;31254;51.680;5.394;2023-08-30T05:39:01;6.68;;;4.32;;
45522;SDS011;31254;51.680;5.394;2023-08-30T05:41:29;8.68;;;4.60;;
45522;SDS011;31254;51.680;5.394;2023-08-30T05:43:57;7.80;;;5.00;;
45522;SDS011;31254;51.680;5.394;2023-08-30T05:46:24;6.93;;;4.78;;
45522;SDS011;31254;51.680;5.394;2023-08-30T05:48:51;13.45;;;8.38;;
45522;SDS011;31254;51.680;5.394;2023-08-30T05:51:21;14.75;;;9.52;;
45522;SDS011;31254;51.680;5.394;2023-08-30T05:53:47;11.93;;;7.60;;
45522;SDS011;31254;51.680;5.394;2023-08-30T05:56:14;11.38;;;8.27;;
45522;SDS011;31254;51.680;5.394;2023-08-30T05:58:40;11.65;;;7.47;;
45522;SDS011;31254;51.680;5.394;2023-08-30T06:01:07;10.77;;;6.65;;
45522;SDS011;31254;51.680;5.394;2023-08-30T06:03:34;10.68;;;7.22;;
45522;SDS011;31254;51.680;5.394;2023-08-30T06:06:01;10.70;;;7.13;;
45522;SDS011;31254;51.680;5.394;2023-08-30T06:08:28;12.85;;;7.00;;
45522;SDS011;31254;51.680;5.394;2023-08-30T06:10:55;10.32;;;6.70;;
45522;SDS011;31254;51.680;5.394;2023-08-30T06:13:21;9.85;;;6.50;;
45522;SDS011;31254;51.680;5.394;2023-08-30T06:15:51;10.77;;;7.13;;
45522;SDS011;31254;51.680;5.394;2023-08-30T06:18:18;12.02;;;6.18;;
45522;SDS011;31254;51.680;5.394;2023-08-30T06:20:45;9.90;;;6.18;;
45522;SDS011;31254;51.680;5.394;2023-08-30T06:23:12;10.80;;;6.30;;
45522;SDS011;31254;51.680;5.394;2023-08-30T06:25:40;7.63;;;5.38;;
45522;SDS011;31254;51.680;5.394;2023-08-30T06:28:06;7.75;;;5.50;;
45522;SDS011;31254;51.680;5.394;2023-08-30T06:30:33;7.55;;;5.05;;
45522;SDS011;31254;51.680;5.394;2023-08-30T06:33:00;9.50;;;5.57;;
45522;SDS011;31254;51.680;5.394;2023-08-30T06:35:26;8.13;;;5.57;;
45522;SDS011;31254;51.680;5.394;2023-08-30T06:37:53;8.02;;;4.95;;
45522;SDS011;31254;51.680;5.394;2023-08-30T06:40:19;9.07;;;5.05;;
45522;SDS011;31254;51.680;5.394;2023-08-30T06:42:46;7.13;;;4.40;;
45522;SDS011;31254;51.680;5.394;2023-08-30T06:45:12;9.82;;;5.10;;
45522;SDS011;31254;51.680;5.394;2023-08-30T06:47:39;8.35;;;4.30;;
45522;SDS011;31254;51.680;5.394;2023-08-30T06:50:06;8.90;;;4.97;;
45522;SDS011;31254;51.680;5.394;2023-08-30T06:52:35;8.93;;;4.93;;
45522;SDS011;31254;51.680;5.394;2023-08-30T06:55:03;8.65;;;4.40;;
45522;SDS011;31254;51.680;5.394;2023-08-30T06:57:30;6.45;;;4.53;;
45522;SDS011;31254;51.680;5.394;2023-08-30T06:59:56;7.18;;;4.85;;
45522;SDS011;31254;51.680;5.394;2023-08-30T07:02:25;6.43;;;4.68;;
45522;SDS011;31254;51.680;5.394;2023-08-30T07:04:52;9.35;;;5.40;;
45522;SDS011;31254;51.680;5.394;2023-08-30T07:07:18;7.15;;;4.40;;
45522;SDS011;31254;51.680;5.394;2023-08-30T07:09:45;7.93;;;4.18;;
45522;SDS011;31254;51.680;5.394;2023-08-30T07:12:11;8.07;;;4.30;;
45522;SDS011;31254;51.680;5.394;2023-08-30T07:14:38;8.98;;;4.45;;
45522;SDS011;31254;51.680;5.394;2023-08-30T07:17:04;8.13;;;4.72;;
45522;SDS011;31254;51.680;5.394;2023-08-30T07:19:37;7.18;;;4.57;;
45522;SDS011;31254;51.680;5.394;2023-08-30T07:22:03;7.82;;;4.63;;
45522;SDS011;31254;51.680;5.394;2023-08-30T07:24:30;9.23;;;4.68;;
45522;SDS011;31254;51.680;5.394;2023-08-30T07:26:57;5.88;;;4.25;;
45522;SDS011;31254;51.680;5.394;2023-08-30T07:29:23;8.85;;;4.18;;
45522;SDS011;31254;51.680;5.394;2023-08-30T07:31:50;8.25;;;4.40;;
45522;SDS011;31254;51.680;5.394;2023-08-30T07:34:19;7.32;;;4.18;;
45522;SDS011;31254;51.680;5.394;2023-08-30T07:36:46;5.68;;;4.32;;
45522;SDS011;31254;51.680;5.394;2023-08-30T07:39:13;6.70;;;4.43;;
45522;SDS011;31254;51.680;5.394;2023-08-30T07:41:40;8.93;;;4.50;;
45522;SDS011;31254;51.680;5.394;2023-08-30T07:44:07;7.85;;;4.50;;
45522;SDS011;31254;51.680;5.394;2023-08-30T07:46:33;7.80;;;4.18;;
45522;SDS011;31254;51.680;5.394;2023-08-30T07:49:00;9.35;;;4.63;;
45522;SDS011;31254;51.680;5.394;2023-08-30T07:51:27;9.38;;;4.47;;
45522;SDS011;31254;51.680;5.394;2023-08-30T07:53:53;6.60;;;4.43;;
45522;SDS011;31254;51.680;5.394;2023-08-30T07:56:20;9.70;;;4.70;;
45522;SDS011;31254;51.680;5.394;2023-08-30T07:58:46;6.90;;;4.78;;
45522;SDS011;31254;51.680;5.394;2023-08-30T08:01:13;7.30;;;4.53;;
45522;SDS011;31254;51.680;5.394;2023-08-30T08:03:40;5.80;;;4.35;;
45522;SDS011;31254;51.680;5.394;2023-08-30T08:06:29;7.57;;;4.30;;
45522;SDS011;31254;51.680;5.394;2023-08-30T08:08:55;6.30;;;4.30;;
45522;SDS011;31254;51.680;5.394;2023-08-30T08:11:22;5.47;;;3.95;;
45522;SDS011;31254;51.680;5.394;2023-08-30T08:13:49;6.45;;;4.10;;
45522;SDS011;31254;51.680;5.394;2023-08-30T08:16:15;7.72;;;4.57;;
45522;SDS011;31254;51.680;5.394;2023-08-30T08:18:42;6.68;;;3.92;;
45522;SDS011;31254;51.680;5.394;2023-08-30T08:21:09;8.85;;;4.03;;
45522;SDS011;31254;51.680;5.394;2023-08-30T08:23:35;7.50;;;4.22;;
45522;SDS011;31254;51.680;5.394;2023-08-30T08:26:02;5.97;;;4.20;;
45522;SDS011;31254;51.680;5.394;2023-08-30T08:28:34;5.50;;;3.80;;
45522;SDS011;31254;51.680;5.394;2023-08-30T08:31:01;4.70;;;3.53;;
45522;SDS011;31254;51.680;5.394;2023-08-30T08:33:27;5.32;;;3.45;;
45522;SDS011;31254;51.680;5.394;2023-08-30T08:35:54;5.97;;;3.70;;
45522;SDS011;31254;51.680;5.394;2023-08-30T08:38:20;4.57;;;3.05;;
45522;SDS011;31254;51.680;5.394;2023-08-30T08:40:47;5.10;;;3.15;;
45522;SDS011;31254;51.680;5.394;2023-08-30T08:43:16;6.40;;;3.47;;
45522;SDS011;31254;51.680;5.394;2023-08-30T08:45:45;4.07;;;2.70;;
45522;SDS011;31254;51.680;5.394;2023-08-30T08:48:12;3.88;;;2.80;;
45522;SDS011;31254;51.680;5.394;2023-08-30T08:50:40;4.95;;;3.20;;
45522;SDS011;31254;51.680;5.394;2023-08-30T08:53:07;5.53;;;2.92;;
45522;SDS011;31254;51.680;5.394;2023-08-30T08:55:34;4.70;;;2.83;;
45522;SDS011;31254;51.680;5.394;2023-08-30T08:58:01;3.30;;;2.40;;
45522;SDS011;31254;51.680;5.394;2023-08-30T09:00:30;5.53;;;2.85;;
45522;SDS011;31254;51.680;5.394;2023-08-30T09:02:57;5.85;;;2.58;;
45522;SDS011;31254;51.680;5.394;2023-08-30T09:05:25;5.53;;;2.67;;
45522;SDS011;31254;51.680;5.394;2023-08-30T09:07:52;4.88;;;3.00;;
45522;SDS011;31254;51.680;5.394;2023-08-30T09:10:21;5.38;;;2.60;;
45522;SDS011;31254;51.680;5.394;2023-08-30T09:12:50;6.00;;;2.58;;
45522;SDS011;31254;51.680;5.394;2023-08-30T09:15:17;5.43;;;3.00;;
45522;SDS011;31254;51.680;5.394;2023-08-30T09:17:46;5.68;;;3.03;;
45522;SDS011;31254;51.680;5.394;2023-08-30T09:20:13;3.08;;;2.67;;
45522;SDS011;31254;51.680;5.394;2023-08-30T09:22:41;4.32;;;2.53;;
45522;SDS011;31254;51.680;5.394;2023-08-30T09:25:10;4.45;;;3.05;;
45522;SDS011;31254;51.680;5.394;2023-08-30T09:27:37;4.57;;;3.00;;
45522;SDS011;31254;51.680;5.394;2023-08-30T09:30:05;5.25;;;3.08;;
45522;SDS011;31254;51.680;5.394;2023-08-30T09:32:40;4.28;;;2.97;;
45522;SDS011;31254;51.680;5.394;2023-08-30T09:35:11;4.57;;;3.47;;
45522;SDS011;31254;51.680;5.394;2023-08-30T09:37:38;4.72;;;3.42;;
45522;SDS011;31254;51.680;5.394;2023-08-30T09:40:05;4.55;;;3.33;;
45522;SDS011;31254;51.680;5.394;2023-08-30T09:42:32;5.40;;;3.78;;
45522;SDS011;31254;51.680;5.394;2023-08-30T09:44:59;6.07;;;4.53;;
45522;SDS011;31254;51.680;5.394;2023-08-30T09:47:26;4.80;;;3.60;;
45522;SDS011;31254;51.680;5.394;2023-08-30T09:49:56;6.50;;;4.53;;
45522;SDS011;31254;51.680;5.394;2023-08-30T09:52:26;4.35;;;3.65;;
45522;SDS011;31254;51.680;5.394;2023-08-30T09:54:55;5.60;;;3.53;;
45522;SDS011;31254;51.680;5.394;2023-08-30T09:57:22;4.65;;;3.65;;
45522;SDS011;31254;51.680;5.394;2023-08-30T09:59:50;5.90;;;3.90;;
45522;SDS011;31254;51.680;5.394;2023-08-30T10:02:17;4.43;;;3.33;;
45522;SDS011;31254;51.680;5.394;2023-08-30T10:04:44;3.78;;;3.05;;
45522;SDS011;31254;51.680;5.394;2023-08-30T10:07:12;4.13;;;3.10;;
45522;SDS011;31254;51.680;5.394;2023-08-30T10:09:40;4.22;;;3.28;;
45522;SDS011;31254;51.680;5.394;2023-08-30T10:12:27;4.28;;;2.90;;
45522;SDS011;31254;51.680;5.394;2023-08-30T10:14:55;5.05;;;3.08;;
45522;SDS011;31254;51.680;5.394;2023-08-30T10:17:27;4.00;;;2.88;;
45522;SDS011;31254;51.680;5.394;2023-08-30T10:19:58;4.25;;;3.25;;
45522;SDS011;31254;51.680;5.394;2023-08-30T10:22:26;4.22;;;3.25;;
45522;SDS011;31254;51.680;5.394;2023-08-30T10:24:54;4.00;;;2.90;;
45522;SDS011;31254;51.680;5.394;2023-08-30T10:27:37;4.55;;;3.28;;
45522;SDS011;31254;51.680;5.394;2023-08-30T10:30:08;3.85;;;2.80;;
45522;SDS011;31254;51.680;5.394;2023-08-30T10:32:40;4.45;;;3.08;;
45522;SDS011;31254;51.680;5.394;2023-08-30T10:35:10;4.50;;;3.05;;
45522;SDS011;31254;51.680;5.394;2023-08-30T10:37:38;4.22;;;3.20;;
45522;SDS011;31254;51.680;5.394;2023-08-30T10:40:05;5.13;;;3.13;;
45522;SDS011;31254;51.680;5.394;2023-08-30T10:42:32;4.40;;;2.90;;
45522;SDS011;31254;51.680;5.394;2023-08-30T10:45:00;4.25;;;3.20;;
45522;SDS011;31254;51.680;5.394;2023-08-30T10:47:37;5.47;;;2.70;;
45522;SDS011;31254;51.680;5.394;2023-08-30T10:50:09;5.38;;;3.38;;
45522;SDS011;31254;51.680;5.394;2023-08-30T10:52:38;4.53;;;3.15;;
45522;SDS011;31254;51.680;5.394;2023-08-30T10:57:31;5.90;;;3.28;;
45522;SDS011;31254;51.680;5.394;2023-08-30T11:00:09;5.07;;;3.05;;
45522;SDS011;31254;51.680;5.394;2023-08-30T11:02:43;4.50;;;2.40;;
45522;SDS011;31254;51.680;5.394;2023-08-30T11:05:12;5.60;;;2.70;;
45522;SDS011;31254;51.680;5.394;2023-08-30T11:07:39;3.58;;;2.70;;
45522;SDS011;31254;51.680;5.394;2023-08-30T11:10:06;4.50;;;2.50;;
45522;SDS011;31254;51.680;5.394;2023-08-30T11:12:33;3.83;;;2.40;;
45522;SDS011;31254;51.680;5.394;2023-08-30T11:15:00;6.10;;;2.70;;
45522;SDS011;31254;51.680;5.394;2023-08-30T11:17:27;4.43;;;2.20;;
45522;SDS011;31254;51.680;5.394;2023-08-30T11:20:05;4.28;;;2.28;;
45522;SDS011;31254;51.680;5.394;2023-08-30T11:22:43;3.05;;;2.00;;
45522;SDS011;31254;51.680;5.394;2023-08-30T11:25:13;3.15;;;1.80;;
45522;SDS011;31254;51.680;5.394;2023-08-30T11:27:41;4.25;;;1.90;;
45522;SDS011;31254;51.680;5.394;2023-08-30T11:30:09;3.45;;;1.75;;
45522;SDS011;31254;51.680;5.394;2023-08-30T11:32:38;3.38;;;1.65;;
45522;SDS011;31254;51.680;5.394;2023-08-30T11:35:06;2.60;;;1.73;;
45522;SDS011;31254;51.680;5.394;2023-08-30T11:37:33;5.68;;;1.95;;
45522;SDS011;31254;51.680;5.394;2023-08-30T11:40:01;3.05;;;1.73;;
45522;SDS011;31254;51.680;5.394;2023-08-30T11:42:30;4.13;;;1.80;;
45522;SDS011;31254;51.680;5.394;2023-08-30T11:44:58;2.88;;;1.63;;
45522;SDS011;31254;51.680;5.394;2023-08-30T11:47:26;3.38;;;1.55;;
45522;SDS011;31254;51.680;5.394;2023-08-30T11:49:54;6.90;;;1.80;;
45522;SDS011;31254;51.680;5.394;2023-08-30T11:52:22;3.38;;;1.60;;
45522;SDS011;31254;51.680;5.394;2023-08-30T11:54:50;2.50;;;1.40;;
45522;SDS011;31254;51.680;5.394;2023-08-30T11:57:17;2.17;;;1.35;;
45522;SDS011;31254;51.680;5.394;2023-08-30T11:59:44;3.13;;;1.50;;
45522;SDS011;31254;51.680;5.394;2023-08-30T12:02:14;3.53;;;1.42;;
45522;SDS011;31254;51.680;5.394;2023-08-30T12:04:42;4.10;;;1.52;;
45522;SDS011;31254;51.680;5.394;2023-08-30T12:07:21;3.90;;;1.67;;
45522;SDS011;31254;51.680;5.394;2023-08-30T12:10:04;2.25;;;1.20;;
45522;SDS011;31254;51.680;5.394;2023-08-30T12:12:35;3.85;;;1.40;;
45522;SDS011;31254;51.680;5.394;2023-08-30T12:15:09;3.72;;;1.60;;
45522;SDS011;31254;51.680;5.394;2023-08-30T12:17:37;3.92;;;1.52;;
45522;SDS011;31254;51.680;5.394;2023-08-30T12:20:04;2.90;;;1.60;;
45522;SDS011;31254;51.680;5.394;2023-08-30T12:22:37;2.22;;;1.40;;
45522;SDS011;31254;51.680;5.394;2023-08-30T12:25:26;3.17;;;1.70;;
45522;SDS011;31254;51.680;5.394;2023-08-30T12:27:52;2.97;;;1.45;;
45522;SDS011;31254;51.680;5.394;2023-08-30T12:30:19;3.58;;;1.55;;
45522;SDS011;31254;51.680;5.394;2023-08-30T12:32:46;2.53;;;1.33;;
45522;SDS011;31254;51.680;5.394;2023-08-30T12:35:13;3.55;;;1.80;;
45522;SDS011;31254;51.680;5.394;2023-08-30T12:37:40;3.22;;;1.38;;
45522;SDS011;31254;51.680;5.394;2023-08-30T12:40:07;3.47;;;1.48;;
45522;SDS011;31254;51.680;5.394;2023-08-30T12:42:34;3.25;;;1.60;;
45522;SDS011;31254;51.680;5.394;2023-08-30T12:45:01;4.43;;;1.92;;
45522;SDS011;31254;51.680;5.394;2023-08-30T12:47:29;5.07;;;1.52;;
45522;SDS011;31254;51.680;5.394;2023-08-30T12:49:56;4.10;;;1.83;;
45522;SDS011;31254;51.680;5.394;2023-08-30T12:52:23;6.18;;;1.80;;
45522;SDS011;31254;51.680;5.394;2023-08-30T12:54:49;3.03;;;1.40;;
45522;SDS011;31254;51.680;5.394;2023-08-30T12:57:18;3.55;;;1.50;;
45522;SDS011;31254;51.680;5.394;2023-08-30T12:59:45;4.60;;;1.42;;
45522;SDS011;31254;51.680;5.394;2023-08-30T13:02:11;5.07;;;1.77;;
45522;SDS011;31254;51.680;5.394;2023-08-30T13:04:38;4.75;;;1.52;;
45522;SDS011;31254;51.680;5.394;2023-08-30T13:07:05;3.50;;;1.60;;
45522;SDS011;31254;51.680;5.394;2023-08-30T13:09:31;3.53;;;1.65;;
45522;SDS011;31254;51.680;5.394;2023-08-30T13:11:58;3.55;;;1.50;;
45522;SDS011;31254;51.680;5.394;2023-08-30T13:14:25;3.92;;;1.40;;
45522;SDS011;31254;51.680;5.394;2023-08-30T13:16:51;3.55;;;1.42;;
45522;SDS011;31254;51.680;5.394;2023-08-30T13:19:18;3.63;;;1.50;;
45522;SDS011;31254;51.680;5.394;2023-08-30T13:21:45;3.67;;;1.30;;
45522;SDS011;31254;51.680;5.394;2023-08-30T13:24:11;5.00;;;1.52;;
45522;SDS011;31254;51.680;5.394;2023-08-30T13:26:38;3.95;;;1.38;;
45522;SDS011;31254;51.680;5.394;2023-08-30T13:29:04;4.82;;;1.60;;
45522;SDS011;31254;51.680;5.394;2023-08-30T13:31:31;4.38;;;1.85;;
45522;SDS011;31254;51.680;5.394;2023-08-30T13:33:58;4.22;;;1.40;;
45522;SDS011;31254;51.680;5.394;2023-08-30T13:36:25;2.85;;;1.40;;
45522;SDS011;31254;51.680;5.394;2023-08-30T13:38:52;3.42;;;1.30;;
45522;SDS011;31254;51.680;5.394;2023-08-30T13:41:19;4.80;;;1.52;;
45522;SDS011;31254;51.680;5.394;2023-08-30T13:43:46;3.95;;;1.42;;
45522;SDS011;31254;51.680;5.394;2023-08-30T13:46:12;4.38;;;1.80;;
45522;SDS011;31254;51.680;5.394;2023-08-30T13:48:39;3.20;;;1.30;;
45522;SDS011;31254;51.680;5.394;2023-08-30T13:51:05;3.60;;;1.38;;
45522;SDS011;31254;51.680;5.394;2023-08-30T13:53:32;6.50;;;1.52;;
45522;SDS011;31254;51.680;5.394;2023-08-30T13:55:58;4.45;;;1.45;;
45522;SDS011;31254;51.680;5.394;2023-08-30T13:58:25;3.00;;;1.17;;
45522;SDS011;31254;51.680;5.394;2023-08-30T14:00:51;4.05;;;1.60;;
45522;SDS011;31254;51.680;5.394;2023-08-30T14:03:18;3.08;;;1.38;;
45522;SDS011;31254;51.680;5.394;2023-08-30T14:05:46;4.97;;;1.27;;
45522;SDS011;31254;51.680;5.394;2023-08-30T14:08:13;5.85;;;1.23;;
45522;SDS011;31254;51.680;5.394;2023-08-30T14:10:40;2.90;;;1.23;;
45522;SDS011;31254;51.680;5.394;2023-08-30T14:13:06;3.28;;;1.25;;
45522;SDS011;31254;51.680;5.394;2023-08-30T14:15:33;3.83;;;1.35;;
45522;SDS011;31254;51.680;5.394;2023-08-30T14:18:00;3.45;;;1.30;;
45522;SDS011;31254;51.680;5.394;2023-08-30T14:20:27;2.92;;;1.30;;
45522;SDS011;31254;51.680;5.394;2023-08-30T14:22:54;3.65;;;1.42;;
45522;SDS011;31254;51.680;5.394;2023-08-30T14:25:20;3.15;;;1.33;;
45522;SDS011;31254;51.680;5.394;2023-08-30T14:27:47;5.72;;;1.30;;
45522;SDS011;31254;51.680;5.394;2023-08-30T14:30:14;3.80;;;1.30;;
45522;SDS011;31254;51.680;5.394;2023-08-30T14:32:41;3.22;;;1.20;;
45522;SDS011;31254;51.680;5.394;2023-08-30T14:35:08;3.03;;;1.23;;
45522;SDS011;31254;51.680;5.394;2023-08-30T14:37:35;4.28;;;1.20;;
45522;SDS011;31254;51.680;5.394;2023-08-30T14:40:03;2.58;;;1.00;;
45522;SDS011;31254;51.680;5.394;2023-08-30T14:42:30;4.47;;;1.00;;
45522;SDS011;31254;51.680;5.394;2023-08-30T14:44:58;3.38;;;1.38;;
45522;SDS011;31254;51.680;5.394;2023-08-30T14:47:25;3.25;;;1.27;;
45522;SDS011;31254;51.680;5.394;2023-08-30T14:49:52;3.40;;;1.35;;
45522;SDS011;31254;51.680;5.394;2023-08-30T14:52:18;3.75;;;1.10;;
45522;SDS011;31254;51.680;5.394;2023-08-30T14:54:45;3.20;;;1.10;;
45522;SDS011;31254;51.680;5.394;2023-08-30T14:57:11;2.58;;;1.10;;
45522;SDS011;31254;51.680;5.394;2023-08-30T14:59:38;12.23;;;1.90;;